Time;durP1;ratioP1;P1;durP2;ratioP2;P2;SDS_P1;SDS_P2;PMS_P1;PMS_P2;Temp;Humidity;BMP_temperature;BMP_pressure;BME280_temperature;BME280_humidity;BME280_pressure;Samples;Min_cycle;Max_cycle;Signal;HPM_P1;HPM_P2
2021/12/20 00:02:17;;;;;;;;;;;;;;;;;;5045733;28;19921;-70
2021/12/20 00:04:45;;;;;;;;;;;;;;;;;;5028253;28;20422;-70
2021/12/20 00:07:11;;;;;;;;;;;;;;;;;;5027735;28;19929;-70
2021/12/20 00:09:37;;;;;;;;;;;;;;;;;;5028418;28;19974;-69
2021/12/20 00:12:03;;;;;;;;;;;;;;;;;;5028500;28;19921;-70
2021/12/20 00:14:29;;;;;;;;;;;;;;;;;;5045281;28;20290;-70
2021/12/20 00:16:55;;;;;;;;;;;;;;;;;;5028089;28;19920;-70
2021/12/20 00:19:23;;;;;;;;;;;;;;;;;;5045861;28;19999;-69
2021/12/20 00:21:49;;;;;;;;;;;;;;;;;;5027417;28;20029;-70
2021/12/20 00:24:15;;;;;;;;;;;;;;;;;;5045979;28;20612;-73
2021/12/20 00:26:41;;;;;;;;;;;;;;;;;;5045944;28;20007;-70
2021/12/20 00:29:07;;;;;;;;;;;;;;;;;;5045537;28;20000;-71
2021/12/20 00:31:33;;;;;;;;;;;;;;;;;;5045742;28;19921;-71
2021/12/20 00:33:59;;;;;;;;;;;;;;;;;;5045794;28;19931;-70
2021/12/20 00:36:27;;;;;;;;;;;;;;;;;;5044292;28;19936;-70
2021/12/20 00:41:37;;;;;;;;;;;;;;;;;;5045413;28;19920;-71
2021/12/20 00:44:03;;;;;;;;;;;;;;;;;;5027681;28;20007;-70
2021/12/20 00:46:29;;;;;;;;;;;;;;;;;;5045234;28;20012;-71
2021/12/20 00:48:55;;;;;;;;;;;;;;;;;;5045300;28;21675;-70
2021/12/20 00:51:21;;;;;;;;;;;;;;;;;;5044353;28;19920;-71
2021/12/20 00:53:47;;;;;;;;;;;;;;;;;;5027379;28;19920;-71
2021/12/20 00:56:13;;;;;;;;;;;;;;;;;;5027431;28;19999;-70
2021/12/20 00:58:39;;;;;;;;;;;;;;;;;;5044827;28;20028;-71
2021/12/20 01:01:06;;;;;;;;;;;;;;;;;;5027588;28;19925;-70
2021/12/20 01:03:32;;;;;;;;;;;;;;;;;;5044468;28;19927;-70
2021/12/20 01:05:58;;;;;;;;;;;;;;;;;;5045255;28;20003;-70
2021/12/20 01:08:25;;;;;;;;;;;;;;;;;;5043825;28;20425;-69
2021/12/20 01:10:53;;;;;;;;;;;;;;;;;;5044992;28;19925;-70
2021/12/20 01:13:21;;;;;;;;;;;;;;;;;;5026566;28;20382;-70
2021/12/20 01:15:51;;;;;;;;;;;;;;;;;;5043021;28;19921;-71
2021/12/20 01:18:17;;;;;;;;;;;;;;;;;;5044284;28;20344;-71
2021/12/20 01:20:43;;;;;;;;;;;;;;;;;;5045461;28;20426;-71
2021/12/20 01:23:09;;;;;;;;;;;;;;;;;;5043970;28;20004;-71
2021/12/20 01:25:35;;;;;;;;;;;;;;;;;;5043695;28;20024;-71
2021/12/20 01:28:01;;;;;;;;;;;;;;;;;;5027073;28;19921;-70
2021/12/20 01:30:27;;;;;;;;;;;;;;;;;;5044020;28;20372;-71
2021/12/20 01:32:53;;;;;;;;;;;;;;;;;;5026176;28;19942;-70
2021/12/20 01:35:19;;;;;;;;;;;;;;;;;;5043987;28;20013;-71
2021/12/20 01:37:45;;;;;;;;;;;;;;;;;;5026389;28;19972;-71
2021/12/20 01:40:11;;;;;;;;;;;;;;;;;;5045248;28;20019;-70
2021/12/20 01:42:37;;;;;;;;;;;;;;;;;;5009832;28;20003;-69
2021/12/20 01:45:03;;;;;;;;;;;;;;;;;;5044718;28;20287;-69
2021/12/20 01:47:34;;;;;;;;;;;;;;;;;;5044290;28;20390;-70
2021/12/20 01:50:06;;;;;;;;;;;;;;;;;;5026208;28;19921;-70
2021/12/20 01:52:40;;;;;;;;;;;;;;;;;;5042784;28;20386;-69
2021/12/20 01:55:06;;;;;;;;;;;;;;;;;;5026284;28;20324;-70
2021/12/20 01:57:32;;;;;;;;;;;;;;;;;;5044429;28;19928;-70
2021/12/20 01:59:58;;;;;;;;;;;;;;;;;;5044770;28;19921;-70
2021/12/20 02:02:24;;;;;;;;;;;;;;;;;;5081964;22;19927;-64
2021/12/20 02:04:52;;;;;;;;;;;;;;;;;;5045202;28;20364;-64
2021/12/20 02:07:36;;;;;;;;;;;;;;;;;;5040590;28;19916;-65
2021/12/20 02:10:02;;;;;;;;;;;;;;;;;;5044816;28;20297;-64
2021/12/20 02:12:28;;;;;;;;;;;;;;;;;;5044897;28;20393;-65
2021/12/20 02:14:54;;;;;;;;;;;;;;;;;;5022772;28;19921;-64
2021/12/20 02:17:20;;;;;;;;;;;;;;;;;;5044580;28;19920;-65
2021/12/20 02:19:46;;;;;;;;;;;;;;;;;;5045441;28;19982;-65
2021/12/20 02:22:12;;;;;;;;;;;;;;;;;;5043524;28;20362;-65
2021/12/20 02:24:38;;;;;;;;;;;;;;;;;;5044108;28;19974;-65
2021/12/20 02:27:04;;;;;;;;;;;;;;;;;;5026934;28;19970;-65
2021/12/20 02:29:44;;;;;;;;;;;;;;;;;;5044581;28;20630;-65
2021/12/20 02:37:39;;;;;;;;;;;;;;;;;;5043610;28;19960;-65
2021/12/20 02:40:05;;;;;;;;;;;;;;;;;;5044805;28;20002;-65
2021/12/20 02:42:34;;;;;;;;;;;;;;;;;;5044720;28;20063;-65
2021/12/20 02:45:10;;;;;;;;;;;;;;;;;;5044681;28;20400;-65
2021/12/20 02:47:36;;;;;;;;;;;;;;;;;;5030349;28;19994;-65
2021/12/20 02:50:02;;;;;;;;;;;;;;;;;;5048403;28;20322;-64
2021/12/20 02:52:28;;;;;;;;;;;;;;;;;;5047662;28;20007;-65
2021/12/20 02:54:54;;;;;;;;;;;;;;;;;;5044755;28;19927;-65
2021/12/20 02:57:20;;;;;;;;;;;;;;;;;;5047349;28;19921;-65
2021/12/20 02:59:46;;;;;;;;;;;;;;;;;;5048054;28;19924;-65
2021/12/20 03:02:12;;;;;;;;;;;;;;;;;;5048722;28;19971;-65
2021/12/20 03:04:38;;;;;;;;;;;;;;;;;;5047768;28;20014;-65
2021/12/20 03:07:04;;;;;;;;;;;;;;;;;;5047159;28;20307;-65
2021/12/20 03:09:32;;;;;;;;;;;;;;;;;;5047710;28;19920;-65
2021/12/20 03:11:59;;;;;;;;;;;;;;;;;;5048340;28;19974;-65
2021/12/20 03:14:29;;;;;;;;;;;;;;;;;;5048245;28;19917;-65
2021/12/20 03:16:55;;;;;;;;;;;;;;;;;;5048327;28;19920;-64
2021/12/20 03:19:21;;;;;;;;;;;;;;;;;;5047069;28;20456;-65
2021/12/20 03:21:47;;;;;;;;;;;;;;;;;;5029636;28;19990;-65
2021/12/20 03:24:14;;;;;;;;;;;;;;;;;;5048659;28;20285;-65
2021/12/20 03:26:40;;;;;;;;;;;;;;;;;;5048179;28;19999;-65
2021/12/20 03:29:06;;;;;;;;;;;;;;;;;;5048046;28;20015;-65
2021/12/20 03:31:32;;;;;;;;;;;;;;;;;;5046906;28;20140;-65
2021/12/20 03:33:58;;;;;;;;;;;;;;;;;;5047477;28;20417;-65
2021/12/20 03:36:24;;;;;;;;;;;;;;;;;;5046361;28;20003;-65
2021/12/20 03:38:50;;;;;;;;;;;;;;;;;;5044391;28;19921;-65
2021/12/20 03:41:16;;;;;;;;;;;;;;;;;;5046806;28;19989;-65
2021/12/20 03:43:42;;;;;;;;;;;;;;;;;;5047525;28;20394;-65
2021/12/20 03:46:08;;;;;;;;;;;;;;;;;;5047402;28;19921;-65
2021/12/20 03:48:34;;;;;;;;;;;;;;;;;;5046847;28;19973;-65
2021/12/20 03:51:01;;;;;;;;;;;;;;;;;;5046413;28;19921;-65
2021/12/20 03:53:27;;;;;;;;;;;;;;;;;;5046436;28;19921;-65
2021/12/20 03:55:53;;;;;;;;;;;;;;;;;;5025811;28;19928;-65
2021/12/20 03:58:19;;;;;;;;;;;;;;;;;;5046919;28;19933;-65
2021/12/20 04:00:46;;;;;;;;;;;;;;;;;;5047199;28;19921;-64
2021/12/20 04:03:14;;;;;;;;;;;;;;;;;;5047192;28;19935;-65
2021/12/20 04:05:40;;;;;;;;;;;;;;;;;;5046714;28;19921;-65
2021/12/20 04:08:07;;;;;;;;;;;;;;;;;;5046544;28;19935;-65
2021/12/20 04:10:33;;;;;;;;;;;;;;;;;;5028629;28;20008;-65
2021/12/20 04:12:59;;;;;;;;;;;;;;;;;;5047006;28;19985;-64
2021/12/20 04:15:25;;;;;;;;;;;;;;;;;;5046089;28;20362;-65
2021/12/20 04:17:51;;;;;;;;;;;;;;;;;;5028231;28;19920;-64
2021/12/20 04:20:17;;;;;;;;;;;;;;;;;;5046437;28;19916;-64
2021/12/20 04:22:43;;;;;;;;;;;;;;;;;;5046356;28;20305;-65
2021/12/20 04:25:09;;;;;;;;;;;;;;;;;;5045986;28;19929;-64
2021/12/20 04:27:35;;;;;;;;;;;;;;;;;;5045406;28;19928;-65
2021/12/20 04:30:08;;;;;;;;;;;;;;;;;;5046561;28;19921;-65
2021/12/20 04:32:34;;;;;;;;;;;;;;;;;;5045887;28;20433;-65
2021/12/20 04:35:00;;;;;;;;;;;;;;;;;;5046160;28;19920;-65
2021/12/20 04:37:26;;;;;;;;;;;;;;;;;;5026955;28;19920;-65
2021/12/20 04:39:52;;;;;;;;;;;;;;;;;;5046371;28;20003;-65
2021/12/20 04:42:18;;;;;;;;;;;;;;;;;;5045785;28;20004;-65
2021/12/20 04:44:44;;;;;;;;;;;;;;;;;;5046030;28;20017;-64
2021/12/20 04:47:10;;;;;;;;;;;;;;;;;;5046184;28;20011;-65
2021/12/20 04:49:36;;;;;;;;;;;;;;;;;;5045132;28;20334;-65
2021/12/20 04:52:02;;;;;;;;;;;;;;;;;;5044899;28;19966;-64
2021/12/20 04:54:28;;;;;;;;;;;;;;;;;;5045541;28;20015;-65
2021/12/20 04:56:54;;;;;;;;;;;;;;;;;;5046020;28;20019;-65
2021/12/20 04:59:20;;;;;;;;;;;;;;;;;;5045756;28;19974;-64
2021/12/20 05:01:46;;;;;;;;;;;;;;;;;;5045036;28;19986;-65
2021/12/20 05:04:13;;;;;;;;;;;;;;;;;;5027535;28;19921;-65
2021/12/20 05:06:39;;;;;;;;;;;;;;;;;;5044749;28;19928;-65
2021/12/20 05:09:05;;;;;;;;;;;;;;;;;;5045066;28;20332;-65
2021/12/20 05:11:33;;;;;;;;;;;;;;;;;;5045525;28;20577;-65
2021/12/20 05:13:59;;;;;;;;;;;;;;;;;;5045836;28;19920;-64
2021/12/20 05:16:25;;;;;;;;;;;;;;;;;;5042549;28;20396;-65
2021/12/20 05:18:51;;;;;;;;;;;;;;;;;;5045513;28;19928;-65
2021/12/20 05:21:17;;;;;;;;;;;;;;;;;;5044451;28;19916;-65
2021/12/20 05:23:43;;;;;;;;;;;;;;;;;;5045640;28;19928;-65
2021/12/20 05:26:09;;;;;;;;;;;;;;;;;;5045658;28;20370;-65
2021/12/20 05:28:35;;;;;;;;;;;;;;;;;;5027042;28;19931;-64
2021/12/20 05:31:01;;;;;;;;;;;;;;;;;;5045545;28;19925;-64
2021/12/20 05:33:27;;;;;;;;;;;;;;;;;;5042328;28;19940;-65
2021/12/20 05:35:53;;;;;;;;;;;;;;;;;;5043987;28;20063;-66
2021/12/20 05:38:19;;;;;;;;;;;;;;;;;;5045161;28;20007;-66
2021/12/20 05:40:45;;;;;;;;;;;;;;;;;;5045265;28;20003;-65
2021/12/20 05:43:12;;;;;;;;;;;;;;;;;;5045953;28;20713;-65
2021/12/20 05:45:38;;;;;;;;;;;;;;;;;;5044932;28;19921;-65
2021/12/20 05:48:04;;;;;;;;;;;;;;;;;;5044804;28;19920;-65
2021/12/20 05:50:30;;;;;;;;;;;;;;;;;;5044203;28;19974;-65
2021/12/20 05:52:56;;;;;;;;;;;;;;;;;;5045014;28;19929;-65
2021/12/20 05:55:22;;;;;;;;;;;;;;;;;;5045063;28;19920;-65
2021/12/20 05:57:48;;;;;;;;;;;;;;;;;;5044922;28;20008;-65
2021/12/20 06:00:14;;;;;;;;;;;;;;;;;;5045193;28;19920;-65
2021/12/20 06:02:40;;;;;;;;;;;;;;;;;;5044748;28;19924;-65
2021/12/20 06:05:06;;;;;;;;;;;;;;;;;;5044291;28;19974;-65
2021/12/20 06:07:33;;;;;;;;;;;;;;;;;;5044249;28;19921;-65
2021/12/20 06:09:59;;;;;;;;;;;;;;;;;;5044771;28;19928;-65
2021/12/20 06:12:25;;;;;;;;;;;;;;;;;;5044635;28;19928;-65
2021/12/20 06:14:51;;;;;;;;;;;;;;;;;;5045102;28;20440;-65
2021/12/20 06:17:17;;;;;;;;;;;;;;;;;;5044703;28;20394;-65
2021/12/20 06:19:43;;;;;;;;;;;;;;;;;;5046259;28;19925;-65
2021/12/20 06:22:10;;;;;;;;;;;;;;;;;;5047738;28;20429;-65
2021/12/20 06:24:36;;;;;;;;;;;;;;;;;;5030660;28;19974;-66
2021/12/20 06:27:02;;;;;;;;;;;;;;;;;;5049179;28;19925;-66
2021/12/20 06:29:28;;;;;;;;;;;;;;;;;;5048200;28;19928;-65
2021/12/20 06:31:54;;;;;;;;;;;;;;;;;;5048640;28;19921;-65
2021/12/20 06:34:20;;;;;;;;;;;;;;;;;;5027414;28;19928;-65
2021/12/20 06:36:46;;;;;;;;;;;;;;;;;;5047856;28;19972;-65
2021/12/20 06:39:12;;;;;;;;;;;;;;;;;;5048995;28;19932;-65
2021/12/20 06:41:38;;;;;;;;;;;;;;;;;;5047035;28;19917;-66
2021/12/20 06:44:04;;;;;;;;;;;;;;;;;;5049174;28;19974;-65
2021/12/20 06:46:30;;;;;;;;;;;;;;;;;;5048840;28;19916;-66
2021/12/20 06:48:56;;;;;;;;;;;;;;;;;;5048699;28;19928;-66
2021/12/20 06:51:22;;;;;;;;;;;;;;;;;;5047359;28;19926;-65
2021/12/20 06:53:48;;;;;;;;;;;;;;;;;;5049247;28;19917;-66
2021/12/20 06:56:14;;;;;;;;;;;;;;;;;;5048590;28;19924;-66
2021/12/20 06:58:40;;;;;;;;;;;;;;;;;;5030868;28;19921;-65
2021/12/20 07:01:06;;;;;;;;;;;;;;;;;;5048624;28;20314;-68
2021/12/20 07:03:32;;;;;;;;;;;;;;;;;;5045708;28;20052;-68
2021/12/20 07:05:59;;;;;;;;;;;;;;;;;;5046764;28;19951;-68
2021/12/20 07:08:25;;;;;;;;;;;;;;;;;;5048026;28;19921;-68
2021/12/20 07:10:51;;;;;;;;;;;;;;;;;;5046159;28;19927;-68
2021/12/20 07:13:17;;;;;;;;;;;;;;;;;;5044652;28;19939;-68
2021/12/20 07:15:43;;;;;;;;;;;;;;;;;;5046943;28;19968;-68
2021/12/20 07:18:09;;;;;;;;;;;;;;;;;;5047304;28;19924;-68
2021/12/20 07:20:35;;;;;;;;;;;;;;;;;;5044227;28;19956;-67
2021/12/20 07:23:01;;;;;;;;;;;;;;;;;;5046100;28;19921;-68
2021/12/20 07:25:27;;;;;;;;;;;;;;;;;;5031069;28;19967;-68
2021/12/20 07:27:53;;;;;;;;;;;;;;;;;;5047658;28;20341;-68
2021/12/20 07:30:19;;;;;;;;;;;;;;;;;;5048524;28;19920;-68
2021/12/20 07:32:45;;;;;;;;;;;;;;;;;;5043629;28;19927;-66
2021/12/20 07:35:12;;;;;;;;;;;;;;;;;;5042258;28;19924;-68
2021/12/20 07:37:38;;;;;;;;;;;;;;;;;;5044452;28;20313;-69
2021/12/20 07:40:04;;;;;;;;;;;;;;;;;;5043340;28;19925;-69
2021/12/20 07:42:30;;;;;;;;;;;;;;;;;;5041795;28;19945;-69
2021/12/20 07:44:56;;;;;;;;;;;;;;;;;;5042789;28;20297;-69
2021/12/20 07:47:22;;;;;;;;;;;;;;;;;;5046569;28;19940;-69
2021/12/20 07:49:49;;;;;;;;;;;;;;;;;;5043801;28;20018;-70
2021/12/20 07:52:15;;;;;;;;;;;;;;;;;;5041953;28;19925;-69
2021/12/20 07:54:41;;;;;;;;;;;;;;;;;;5042576;28;20389;-70
2021/12/20 07:57:07;;;;;;;;;;;;;;;;;;5026183;28;19935;-69
2021/12/20 07:59:33;;;;;;;;;;;;;;;;;;5042251;28;19921;-69
2021/12/20 08:01:59;;;;;;;;;;;;;;;;;;5043410;28;20002;-70
2021/12/20 08:04:25;;;;;;;;;;;;;;;;;;5041613;28;19920;-71
2021/12/20 08:06:51;;;;;;;;;;;;;;;;;;5024449;28;20633;-69
2021/12/20 08:09:17;;;;;;;;;;;;;;;;;;5041408;28;19943;-69
2021/12/20 08:11:43;;;;;;;;;;;;;;;;;;5042910;28;19928;-70
2021/12/20 08:14:09;;;;;;;;;;;;;;;;;;5044126;28;19917;-69
2021/12/20 08:16:35;;;;;;;;;;;;;;;;;;5040512;28;19925;-70
2021/12/20 08:19:01;;;;;;;;;;;;;;;;;;5044780;28;20831;-69
2021/12/20 08:21:27;;;;;;;;;;;;;;;;;;5040694;28;20012;-69
2021/12/20 08:23:53;;;;;;;;;;;;;;;;;;5043036;28;19924;-69
2021/12/20 08:26:20;;;;;;;;;;;;;;;;;;5022739;28;20711;-69
2021/12/20 08:28:46;;;;;;;;;;;;;;;;;;5041353;28;20317;-69
2021/12/20 08:31:12;;;;;;;;;;;;;;;;;;5044210;28;19955;-69
2021/12/20 08:33:38;;;;;;;;;;;;;;;;;;5043217;28;19924;-69
2021/12/20 08:36:04;;;;;;;;;;;;;;;;;;5040117;28;19936;-69
2021/12/20 08:38:30;;;;;;;;;;;;;;;;;;5042942;28;19951;-69
2021/12/20 08:40:56;;;;;;;;;;;;;;;;;;5043589;28;19935;-71
2021/12/20 08:43:22;;;;;;;;;;;;;;;;;;5024920;28;20000;-70
2021/12/20 08:45:48;;;;;;;;;;;;;;;;;;5043550;28;19928;-70
2021/12/20 08:48:14;;;;;;;;;;;;;;;;;;5044087;28;19928;-70
2021/12/20 08:50:40;;;;;;;;;;;;;;;;;;5042099;28;20295;-71
2021/12/20 08:53:07;;;;;;;;;;;;;;;;;;5025817;28;20011;-69
2021/12/20 08:55:33;;;;;;;;;;;;;;;;;;5043336;28;19928;-69
2021/12/20 08:57:59;;;;;;;;;;;;;;;;;;5043244;28;20453;-69
2021/12/20 09:00:25;;;;;;;;;;;;;;;;;;5042683;28;19924;-69
2021/12/20 09:02:51;;;;;;;;;;;;;;;;;;5035426;28;19924;-69
2021/12/20 09:05:17;;;;;;;;;;;;;;;;;;5034441;28;19979;-68
2021/12/20 09:07:43;;;;;;;;;;;;;;;;;;5042006;28;19923;-69
2021/12/20 09:10:09;;;;;;;;;;;;;;;;;;5043120;28;20620;-69
2021/12/20 09:12:35;;;;;;;;;;;;;;;;;;5042199;28;20002;-69
2021/12/20 09:15:01;;;;;;;;;;;;;;;;;;5042547;28;19962;-69
2021/12/20 09:17:27;;;;;;;;;;;;;;;;;;5024598;28;20321;-69
2021/12/20 09:19:54;;;;;;;;;;;;;;;;;;5042431;28;19928;-69
2021/12/20 09:22:26;;;;;;;;;;;;;;;;;;5042582;28;19931;-70
2021/12/20 09:24:52;;;;;;;;;;;;;;;;;;5041952;28;19925;-69
2021/12/20 09:27:18;;;;;;;;;;;;;;;;;;5041556;28;19925;-70
2021/12/20 09:29:44;;;;;;;;;;;;;;;;;;5043437;28;20388;-70
2021/12/20 09:32:10;;;;;;;;;;;;;;;;;;5042896;28;20004;-69
2021/12/20 09:34:36;;;;;;;;;;;;;;;;;;5042293;28;19925;-70
2021/12/20 09:37:05;;;;;;;;;;;;;;;;;;5037740;28;19932;-70
2021/12/20 09:39:31;;;;;;;;;;;;;;;;;;5042863;28;20286;-69
2021/12/20 09:42:00;;;;;;;;;;;;;;;;;;5044791;28;19972;-67
2021/12/20 09:44:26;;;;;;;;;;;;;;;;;;5044742;28;19973;-69
2021/12/20 09:46:52;;;;;;;;;;;;;;;;;;5026334;28;19928;-69
2021/12/20 09:49:18;;;;;;;;;;;;;;;;;;5044794;28;19920;-68
2021/12/20 09:51:44;;;;;;;;;;;;;;;;;;5026239;28;19928;-69
2021/12/20 09:54:10;;;;;;;;;;;;;;;;;;5026667;28;20302;-69
2021/12/20 09:56:38;;;;;;;;;;;;;;;;;;5044523;28;19921;-69
2021/12/20 09:59:04;;;;;;;;;;;;;;;;;;5043744;28;20386;-69
2021/12/20 10:01:30;;;;;;;;;;;;;;;;;;5044028;28;19920;-68
2021/12/20 10:03:56;;;;;;;;;;;;;;;;;;5044528;28;19921;-69
2021/12/20 10:06:22;;;;;;;;;;;;;;;;;;5025955;28;19921;-69
2021/12/20 10:08:50;;;;;;;;;;;;;;;;;;5043739;28;20389;-69
2021/12/20 10:11:16;;;;;;;;;;;;;;;;;;5043114;28;19920;-70
2021/12/20 10:13:42;;;;;;;;;;;;;;;;;;5026103;28;20390;-67
2021/12/20 10:16:08;;;;;;;;;;;;;;;;;;5040220;28;19928;-67
2021/12/20 10:18:35;;;;;;;;;;;;;;;;;;5041836;28;19920;-67
2021/12/20 10:21:01;;;;;;;;;;;;;;;;;;5040873;28;20360;-68
2021/12/20 10:23:27;;;;;;;;;;;;;;;;;;5042048;28;19985;-67
2021/12/20 10:25:53;;;;;;;;;;;;;;;;;;5042005;28;20008;-67
2021/12/20 10:28:19;;;;;;;;;;;;;;;;;;5041973;28;20018;-67
2021/12/20 10:30:45;;;;;;;;;;;;;;;;;;5023471;28;20328;-68
2021/12/20 10:33:11;;;;;;;;;;;;;;;;;;5042023;28;20362;-68
2021/12/20 10:35:37;;;;;;;;;;;;;;;;;;5040406;28;19925;-69
2021/12/20 10:38:03;;;;;;;;;;;;;;;;;;5041009;28;19960;-69
2021/12/20 10:40:29;;;;;;;;;;;;;;;;;;5032238;28;19959;-69
2021/12/20 10:42:57;;;;;;;;;;;;;;;;;;5036370;28;20333;-70
2021/12/20 10:45:23;;;;;;;;;;;;;;;;;;5041211;28;19968;-70
2021/12/20 10:47:50;;;;;;;;;;;;;;;;;;5041192;28;19979;-69
2021/12/20 10:50:16;;;;;;;;;;;;;;;;;;5022385;28;19924;-70
2021/12/20 10:52:42;;;;;;;;;;;;;;;;;;5041499;28;19923;-71
2021/12/20 10:55:11;;;;;;;;;;;;;;;;;;5041674;28;19963;-70
2021/12/20 10:57:37;;;;;;;;;;;;;;;;;;5042204;28;19933;-71
2021/12/20 11:00:03;;;;;;;;;;;;;;;;;;5040035;28;19925;-65
2021/12/20 11:03:12;;;;;;;;;;;;;;;;;;5040088;28;19921;-66
2021/12/20 11:05:25;;;;;;;;;;;;;;;;;;5038113;28;19944;-65
2021/12/20 11:10:39;;;;;;;;;;;;;;;;;;5043896;28;19925;-65
2021/12/20 11:13:05;;;;;;;;;;;;;;;;;;5044870;28;19998;-65
2021/12/20 11:15:31;;;;;;;;;;;;;;;;;;5044313;28;20382;-65
2021/12/20 11:17:57;;;;;;;;;;;;;;;;;;5045372;28;19986;-65
2021/12/20 11:20:23;;;;;;;;;;;;;;;;;;5025732;28;20301;-65
2021/12/20 11:22:49;;;;;;;;;;;;;;;;;;5044910;28;20407;-65
2021/12/20 11:25:15;;;;;;;;;;;;;;;;;;5045062;28;20011;-65
2021/12/20 11:27:42;;;;;;;;;;;;;;;;;;5027188;28;19924;-65
2021/12/20 11:30:08;;;;;;;;;;;;;;;;;;5044556;28;19974;-66
2021/12/20 11:32:34;;;;;;;;;;;;;;;;;;5045031;28;20008;-65
2021/12/20 11:35:00;;;;;;;;;;;;;;;;;;5023919;28;20000;-65
2021/12/20 11:37:26;;;;;;;;;;;;;;;;;;5044913;28;19925;-65
2021/12/20 11:39:52;;;;;;;;;;;;;;;;;;5044538;28;20325;-65
2021/12/20 11:42:19;;;;;;;;;;;;;;;;;;5043787;28;20425;-65
2021/12/20 11:44:45;;;;;;;;;;;;;;;;;;5044941;28;20015;-65
2021/12/20 11:47:11;;;;;;;;;;;;;;;;;;5045250;28;20015;-65
2021/12/20 11:49:37;;;;;;;;;;;;;;;;;;5043346;28;19956;-64
2021/12/20 11:52:03;;;;;;;;;;;;;;;;;;5041682;28;20374;-64
2021/12/20 11:54:29;;;;;;;;;;;;;;;;;;5034797;28;19925;-65
2021/12/20 11:56:55;;;;;;;;;;;;;;;;;;5040020;28;19932;-65
2021/12/20 11:59:21;;;;;;;;;;;;;;;;;;5035561;28;19925;-64
2021/12/20 12:01:47;;;;;;;;;;;;;;;;;;5037905;28;19928;-65
2021/12/20 12:04:13;;;;;;;;;;;;;;;;;;5044048;28;20027;-64
2021/12/20 12:06:40;;;;;;;;;;;;;;;;;;5043281;28;19916;-64
2021/12/20 12:09:06;;;;;;;;;;;;;;;;;;5044619;28;19921;-64
2021/12/20 12:11:32;;;;;;;;;;;;;;;;;;5043964;28;19974;-63
2021/12/20 12:14:04;;;;;;;;;;;;;;;;;;5043358;28;19955;-64
2021/12/20 12:16:33;;;;;;;;;;;;;;;;;;5043263;28;19921;-64
2021/12/20 12:18:59;;;;;;;;;;;;;;;;;;5043570;28;20409;-65
2021/12/20 12:21:25;;;;;;;;;;;;;;;;;;5042793;28;19928;-65
2021/12/20 12:23:51;;;;;;;;;;;;;;;;;;5024602;28;19921;-65
2021/12/20 12:26:20;;;;;;;;;;;;;;;;;;5042469;28;19931;-65
2021/12/20 12:28:46;;;;;;;;;;;;;;;;;;5025284;28;20580;-73
2021/12/20 12:31:12;;;;;;;;;;;;;;;;;;5043682;28;20405;-64
2021/12/20 12:33:39;;;;;;;;;;;;;;;;;;5044017;28;19935;-65
2021/12/20 12:36:05;;;;;;;;;;;;;;;;;;5043124;28;20170;-64
2021/12/20 12:38:33;;;;;;;;;;;;;;;;;;5042706;28;19963;-65
2021/12/20 12:40:59;;;;;;;;;;;;;;;;;;5043775;28;19975;-65
2021/12/20 12:43:26;;;;;;;;;;;;;;;;;;5041945;28;20374;-64
2021/12/20 12:45:52;;;;;;;;;;;;;;;;;;5043811;28;19920;-65
2021/12/20 12:48:18;;;;;;;;;;;;;;;;;;5041644;28;20346;-65
2021/12/20 12:50:44;;;;;;;;;;;;;;;;;;5043041;28;19931;-65
2021/12/20 12:53:10;;;;;;;;;;;;;;;;;;5042092;28;19920;-65
2021/12/20 12:55:36;;;;;;;;;;;;;;;;;;5042961;28;19920;-66
2021/12/20 12:58:02;;;;;;;;;;;;;;;;;;5043007;28;19928;-65
2021/12/20 13:00:28;;;;;;;;;;;;;;;;;;5042084;28;20704;-66
2021/12/20 13:02:54;;;;;;;;;;;;;;;;;;5041519;28;19920;-65
2021/12/20 13:05:22;;;;;;;;;;;;;;;;;;5006885;28;20394;-65
2021/12/20 13:07:48;;;;;;;;;;;;;;;;;;5042520;28;19924;-65
2021/12/20 13:10:15;;;;;;;;;;;;;;;;;;5043299;28;19931;-64
2021/12/20 13:15:13;;;;;;;;;;;;;;;;;;5041504;28;20023;-66
2021/12/20 13:17:39;;;;;;;;;;;;;;;;;;5042899;28;19940;-66
2021/12/20 13:20:07;;;;;;;;;;;;;;;;;;5042350;28;20350;-66
2021/12/20 13:22:33;;;;;;;;;;;;;;;;;;5024007;28;19932;-66
2021/12/20 13:24:59;;;;;;;;;;;;;;;;;;5043073;28;19925;-66
2021/12/20 13:27:25;;;;;;;;;;;;;;;;;;5042042;28;19924;-66
2021/12/20 13:29:51;;;;;;;;;;;;;;;;;;5042333;28;20397;-65
2021/12/20 13:32:17;;;;;;;;;;;;;;;;;;5042095;28;19932;-66
2021/12/20 13:34:43;;;;;;;;;;;;;;;;;;5041453;28;19928;-66
2021/12/20 13:37:09;;;;;;;;;;;;;;;;;;5042336;28;19925;-66
2021/12/20 13:39:35;;;;;;;;;;;;;;;;;;5042311;28;19924;-66
2021/12/20 13:42:01;;;;;;;;;;;;;;;;;;5042574;28;19920;-65
2021/12/20 13:44:29;;;;;;;;;;;;;;;;;;5042217;28;19928;-66
2021/12/20 13:46:57;;;;;;;;;;;;;;;;;;5042579;28;19921;-66
2021/12/20 13:49:23;;;;;;;;;;;;;;;;;;5038799;28;19924;-65
2021/12/20 13:51:49;;;;;;;;;;;;;;;;;;5041261;28;20019;-66
2021/12/20 13:54:15;;;;;;;;;;;;;;;;;;5041367;28;19925;-67
2021/12/20 13:56:41;;;;;;;;;;;;;;;;;;5041853;28;19968;-67
2021/12/20 13:59:07;;;;;;;;;;;;;;;;;;5042446;28;19928;-66
2021/12/20 14:01:33;;;;;;;;;;;;;;;;;;5041031;28;19986;-65
2021/12/20 14:03:59;;;;;;;;;;;;;;;;;;5041484;28;19931;-66
2021/12/20 14:06:25;;;;;;;;;;;;;;;;;;5040832;28;19924;-67
2021/12/20 14:08:51;;;;;;;;;;;;;;;;;;5042041;28;20044;-66
2021/12/20 14:11:17;;;;;;;;;;;;;;;;;;5041666;28;20011;-66
2021/12/20 14:13:43;;;;;;;;;;;;;;;;;;5035917;28;19929;-66
2021/12/20 14:16:09;;;;;;;;;;;;;;;;;;5018415;28;19925;-66
2021/12/20 14:18:35;;;;;;;;;;;;;;;;;;5041263;28;19975;-66
2021/12/20 14:21:01;;;;;;;;;;;;;;;;;;5040412;28;20294;-66
2021/12/20 14:23:28;;;;;;;;;;;;;;;;;;5040273;28;19982;-65
2021/12/20 14:25:54;;;;;;;;;;;;;;;;;;5041316;28;19913;-65
2021/12/20 14:28:22;;;;;;;;;;;;;;;;;;5042462;28;20439;-66
2021/12/20 14:30:48;;;;;;;;;;;;;;;;;;5044008;28;19975;-66
2021/12/20 14:33:15;;;;;;;;;;;;;;;;;;5044193;28;19913;-65
2021/12/20 14:35:42;;;;;;;;;;;;;;;;;;5043960;28;19921;-66
2021/12/20 14:38:08;;;;;;;;;;;;;;;;;;5043283;28;19928;-66
2021/12/20 14:40:34;;;;;;;;;;;;;;;;;;5044768;28;19921;-66
2021/12/20 14:43:00;;;;;;;;;;;;;;;;;;5047591;28;20487;-65
2021/12/20 14:45:26;;;;;;;;;;;;;;;;;;5047338;28;19921;-65
2021/12/20 14:47:52;;;;;;;;;;;;;;;;;;5029689;28;19921;-65
2021/12/20 14:50:25;;;;;;;;;;;;;;;;;;5047124;28;19924;-66
2021/12/20 14:52:51;;;;;;;;;;;;;;;;;;5048379;28;19967;-65
2021/12/20 14:55:19;;;;;;;;;;;;;;;;;;5047306;28;19992;-66
2021/12/20 14:57:45;;;;;;;;;;;;;;;;;;5047898;28;20000;-66
2021/12/20 15:00:11;;;;;;;;;;;;;;;;;;5048225;28;19995;-65
2021/12/20 15:02:39;;;;;;;;;;;;;;;;;;5047025;28;20306;-66
2021/12/20 15:05:05;;;;;;;;;;;;;;;;;;5047094;28;20154;-65
2021/12/20 15:07:31;;;;;;;;;;;;;;;;;;5047406;28;19978;-65
2021/12/20 15:09:57;;;;;;;;;;;;;;;;;;5048172;28;19974;-65
2021/12/20 15:12:23;;;;;;;;;;;;;;;;;;5047124;28;20011;-65
2021/12/20 15:14:49;;;;;;;;;;;;;;;;;;5047687;28;19920;-65
2021/12/20 15:17:15;;;;;;;;;;;;;;;;;;5046988;28;19920;-66
2021/12/20 15:19:41;;;;;;;;;;;;;;;;;;5047505;28;19927;-65
2021/12/20 15:22:07;;;;;;;;;;;;;;;;;;5047776;28;20412;-65
2021/12/20 15:24:33;;;;;;;;;;;;;;;;;;5046871;28;19921;-65
2021/12/20 15:26:59;;;;;;;;;;;;;;;;;;5047520;28;19921;-66
2021/12/20 15:29:28;;;;;;;;;;;;;;;;;;5046843;28;19939;-66
2021/12/20 15:31:54;;;;;;;;;;;;;;;;;;5046682;28;19925;-65
2021/12/20 15:34:20;;;;;;;;;;;;;;;;;;5044424;28;19927;-65
2021/12/20 15:36:46;;;;;;;;;;;;;;;;;;5046988;28;20397;-65
2021/12/20 15:39:12;;;;;;;;;;;;;;;;;;5047024;28;20002;-65
2021/12/20 15:41:38;;;;;;;;;;;;;;;;;;5046978;28;20023;-65
2021/12/20 15:44:04;;;;;;;;;;;;;;;;;;5046969;28;19924;-65
2021/12/20 15:46:30;;;;;;;;;;;;;;;;;;5046632;28;20003;-64
2021/12/20 15:48:57;;;;;;;;;;;;;;;;;;5046242;28;19920;-65
2021/12/20 15:51:23;;;;;;;;;;;;;;;;;;5046979;28;20392;-65
2021/12/20 15:53:49;;;;;;;;;;;;;;;;;;5028647;28;19928;-65
2021/12/20 15:56:15;;;;;;;;;;;;;;;;;;5038196;28;19928;-66
2021/12/20 15:58:41;;;;;;;;;;;;;;;;;;5041088;28;20302;-65
2021/12/20 16:01:07;;;;;;;;;;;;;;;;;;5043429;28;19932;-65
2021/12/20 16:03:33;;;;;;;;;;;;;;;;;;5044687;28;20019;-65
2021/12/20 16:06:00;;;;;;;;;;;;;;;;;;5043862;28;20011;-65
2021/12/20 16:08:26;;;;;;;;;;;;;;;;;;5043653;28;20214;-65
2021/12/20 16:10:52;;;;;;;;;;;;;;;;;;5043871;28;19925;-65
2021/12/20 16:13:21;;;;;;;;;;;;;;;;;;5044581;28;19928;-65
2021/12/20 16:15:48;;;;;;;;;;;;;;;;;;5045242;28;19924;-66
2021/12/20 16:18:14;;;;;;;;;;;;;;;;;;5045416;28;20421;-65
2021/12/20 16:20:40;;;;;;;;;;;;;;;;;;5042498;28;19967;-66
2021/12/20 16:23:06;;;;;;;;;;;;;;;;;;5043645;28;19939;-65
2021/12/20 16:25:35;;;;;;;;;;;;;;;;;;5043706;28;19970;-65
2021/12/20 16:28:01;;;;;;;;;;;;;;;;;;5043708;28;19979;-65
2021/12/20 16:30:27;;;;;;;;;;;;;;;;;;5043882;28;20030;-65
2021/12/20 16:32:53;;;;;;;;;;;;;;;;;;5025923;28;20402;-64
2021/12/20 16:35:19;;;;;;;;;;;;;;;;;;5043448;28;19921;-65
2021/12/20 16:37:45;;;;;;;;;;;;;;;;;;5026138;28;19924;-65
2021/12/20 16:40:11;;;;;;;;;;;;;;;;;;5044159;28;19921;-65
2021/12/20 16:42:38;;;;;;;;;;;;;;;;;;5042976;28;19921;-65
2021/12/20 16:45:04;;;;;;;;;;;;;;;;;;5043197;28;19924;-65
2021/12/20 16:47:38;;;;;;;;;;;;;;;;;;5043776;28;19943;-65
2021/12/20 16:50:04;;;;;;;;;;;;;;;;;;5025172;28;19924;-65
2021/12/20 16:52:30;;;;;;;;;;;;;;;;;;5042219;28;20397;-65
2021/12/20 16:54:58;;;;;;;;;;;;;;;;;;5043022;28;20398;-65